BEL3UC EBBR-ESGG
Flight info
| Callsign | BEL3UC |
|---|---|
| Flight time | 1h 16m |
| Altitude | 36000 |
| Route | NIK L191 VICOT N873 SPY DCT XEBOT/N0448F370 DCT JUIST DCT LUTIR DCT GOTEX N873 LOBBI |
| Aircraft | A320/M-SDE3FGHIRWY/LB1 |
Departure
| Time | 2026-05-07 18:55 |
|---|---|
| Airport | Brussels Airport (EBBR) |
Arrival
| Time | 2026-05-07 20:11 |
|---|---|
| Airport | Göteborg Landvetter Airport (ESGG) |
| Time | Latitude | Longitude | Altitude | Speed | Heading |
|---|---|---|---|---|---|
| 2026-05-07 17:49 | 50.90276 | 4.48149 | 39 ft | 0 kts | 155° |
| 2026-05-07 18:46 | 50.90281 | 4.48146 | 117 ft | 4 kts | 154° |
| 2026-05-07 18:46 | 50.90304 | 4.48125 | 119 ft | 4 kts | 136° |
| 2026-05-07 18:47 | 50.90316 | 4.48095 | 118 ft | 4 kts | 77° |
| 2026-05-07 18:47 | 50.90314 | 4.48086 | 117 ft | 0 kts | 65° |
| 2026-05-07 18:50 | 50.90319 | 4.48098 | 117 ft | 3 kts | 59° |
| 2026-05-07 18:50 | 50.90335 | 4.48120 | 119 ft | 5 kts | 36° |
| 2026-05-07 18:50 | 50.90386 | 4.48183 | 121 ft | 11 kts | 49° |
| 2026-05-07 18:50 | 50.90420 | 4.48296 | 120 ft | 11 kts | 66° |
| 2026-05-07 18:51 | 50.90453 | 4.48412 | 121 ft | 12 kts | 65° |
| 2026-05-07 18:51 | 50.90487 | 4.48529 | 118 ft | 12 kts | 65° |
| 2026-05-07 18:51 | 50.90549 | 4.48599 | 119 ft | 12 kts | 12° |
| 2026-05-07 18:51 | 50.90607 | 4.48671 | 119 ft | 12 kts | 66° |
| 2026-05-07 18:52 | 50.90650 | 4.48820 | 120 ft | 17 kts | 65° |
| 2026-05-07 18:52 | 50.90706 | 4.49015 | 117 ft | 21 kts | 65° |
| 2026-05-07 18:52 | 50.90769 | 4.49232 | 121 ft | 22 kts | 65° |
| 2026-05-07 18:52 | 50.90833 | 4.49455 | 122 ft | 23 kts | 65° |
| 2026-05-07 18:53 | 50.90900 | 4.49688 | 119 ft | 22 kts | 66° |
| 2026-05-07 18:53 | 50.90950 | 4.49822 | 123 ft | 14 kts | 43° |
| 2026-05-07 18:53 | 50.91041 | 4.49915 | 119 ft | 16 kts | 24° |
| 2026-05-07 18:53 | 50.91114 | 4.49941 | 117 ft | 10 kts | 343° |
| 2026-05-07 18:54 | 50.91130 | 4.49857 | 119 ft | 9 kts | 252° |
| 2026-05-07 18:54 | 50.91059 | 4.49607 | 117 ft | 58 kts | 246° |
| 2026-05-07 18:54 | 50.90794 | 4.48687 | 119 ft | 123 kts | 245° |
| 2026-05-07 18:54 | 50.90364 | 4.47204 | 193 ft | 165 kts | 244° |
| 2026-05-07 18:55 | 50.89883 | 4.45575 | 823 ft | 163 kts | 247° |
| 2026-05-07 18:55 | 50.89780 | 4.43828 | 1465 ft | 163 kts | 293° |
| 2026-05-07 18:55 | 50.90488 | 4.42464 | 2106 ft | 163 kts | 330° |
| 2026-05-07 18:55 | 50.91497 | 4.41584 | 2581 ft | 174 kts | 332° |
| 2026-05-07 18:56 | 50.92616 | 4.40590 | 2894 ft | 196 kts | 331° |
| 2026-05-07 18:56 | 50.93865 | 4.39467 | 3187 ft | 221 kts | 331° |
| 2026-05-07 18:56 | 50.95272 | 4.38185 | 3600 ft | 245 kts | 331° |
| 2026-05-07 18:56 | 50.96813 | 4.36769 | 4187 ft | 262 kts | 330° |
| 2026-05-07 18:57 | 50.98400 | 4.35297 | 5062 ft | 267 kts | 330° |
| 2026-05-07 18:57 | 51.00017 | 4.33790 | 5954 ft | 271 kts | 329° |
| 2026-05-07 18:57 | 51.01655 | 4.32262 | 6830 ft | 275 kts | 329° |
| 2026-05-07 18:57 | 51.03316 | 4.30713 | 7675 ft | 278 kts | 329° |
| 2026-05-07 18:58 | 51.04996 | 4.29145 | 8544 ft | 282 kts | 328° |
| 2026-05-07 18:58 | 51.06695 | 4.27558 | 9402 ft | 285 kts | 328° |
| 2026-05-07 18:58 | 51.08416 | 4.25950 | 10234 ft | 289 kts | 328° |
| 2026-05-07 18:58 | 51.10218 | 4.24264 | 10536 ft | 312 kts | 328° |
| 2026-05-07 18:59 | 51.12159 | 4.22445 | 10763 ft | 335 kts | 328° |
| 2026-05-07 18:59 | 51.14186 | 4.20544 | 11242 ft | 347 kts | 328° |
| 2026-05-07 18:59 | 51.16278 | 4.18573 | 11937 ft | 351 kts | 326° |
| 2026-05-07 18:59 | 51.18281 | 4.16306 | 12651 ft | 355 kts | 322° |
| 2026-05-07 19:00 | 51.20282 | 4.13952 | 13376 ft | 359 kts | 322° |
| 2026-05-07 19:00 | 51.22306 | 4.11559 | 14062 ft | 363 kts | 322° |
| 2026-05-07 19:00 | 51.24347 | 4.09154 | 14704 ft | 366 kts | 323° |
| 2026-05-07 19:00 | 51.26574 | 4.07131 | 15338 ft | 371 kts | 335° |
| 2026-05-07 19:01 | 51.29043 | 4.05851 | 15972 ft | 376 kts | 347° |
| 2026-05-07 19:01 | 51.31618 | 4.05382 | 16593 ft | 380 kts | 358° |
| 2026-05-07 19:01 | 51.34313 | 4.05337 | 17231 ft | 384 kts | 358° |
| 2026-05-07 19:01 | 51.36988 | 4.05291 | 17856 ft | 387 kts | 358° |
| 2026-05-07 19:02 | 51.39659 | 4.05238 | 18457 ft | 390 kts | 358° |
| 2026-05-07 19:02 | 51.42381 | 4.05180 | 18992 ft | 393 kts | 358° |
| 2026-05-07 19:02 | 51.45128 | 4.05135 | 19530 ft | 397 kts | 360° |
| 2026-05-07 19:02 | 51.47886 | 4.05609 | 20060 ft | 402 kts | 10° |
| 2026-05-07 19:03 | 51.50586 | 4.06869 | 20600 ft | 407 kts | 20° |
| 2026-05-07 19:03 | 51.53185 | 4.08748 | 21129 ft | 410 kts | 24° |
| 2026-05-07 19:03 | 51.55784 | 4.10686 | 21640 ft | 413 kts | 24° |
| 2026-05-07 19:03 | 51.58410 | 4.12636 | 22141 ft | 417 kts | 23° |
| 2026-05-07 19:04 | 51.61057 | 4.14598 | 22621 ft | 420 kts | 23° |
| 2026-05-07 19:04 | 51.63715 | 4.16567 | 23088 ft | 423 kts | 23° |
| 2026-05-07 19:04 | 51.66400 | 4.18560 | 23553 ft | 426 kts | 23° |
| 2026-05-07 19:04 | 51.69102 | 4.20573 | 23947 ft | 429 kts | 23° |
| 2026-05-07 19:05 | 51.71821 | 4.22606 | 24330 ft | 432 kts | 23° |
| 2026-05-07 19:05 | 51.74557 | 4.24651 | 24708 ft | 434 kts | 23° |
| 2026-05-07 19:05 | 51.77308 | 4.26709 | 25076 ft | 436 kts | 23° |
| 2026-05-07 19:05 | 51.80069 | 4.28780 | 25432 ft | 439 kts | 23° |
| 2026-05-07 19:06 | 51.82807 | 4.30836 | 25783 ft | 441 kts | 24° |
| 2026-05-07 19:06 | 51.88406 | 4.35048 | 26480 ft | 445 kts | 24° |
| 2026-05-07 19:06 | 51.91222 | 4.37175 | 26808 ft | 448 kts | 24° |
| 2026-05-07 19:07 | 51.94049 | 4.39315 | 27143 ft | 450 kts | 24° |
| 2026-05-07 19:07 | 51.96899 | 4.41475 | 27485 ft | 452 kts | 24° |
| 2026-05-07 19:07 | 51.99754 | 4.43641 | 27801 ft | 454 kts | 24° |
| 2026-05-07 19:07 | 52.02537 | 4.46087 | 28096 ft | 457 kts | 33° |
| 2026-05-07 19:08 | 52.05165 | 4.49010 | 28402 ft | 459 kts | 33° |
| 2026-05-07 19:08 | 52.07803 | 4.51957 | 28691 ft | 461 kts | 33° |
| 2026-05-07 19:08 | 52.10428 | 4.54897 | 28964 ft | 463 kts | 34° |
| 2026-05-07 19:08 | 52.13084 | 4.57884 | 29231 ft | 465 kts | 34° |
| 2026-05-07 19:09 | 52.15749 | 4.60891 | 29492 ft | 467 kts | 34° |
| 2026-05-07 19:09 | 52.18422 | 4.63916 | 29744 ft | 469 kts | 34° |
| 2026-05-07 19:09 | 52.21097 | 4.66945 | 30000 ft | 470 kts | 34° |
| 2026-05-07 19:09 | 52.23781 | 4.69982 | 30307 ft | 469 kts | 34° |
| 2026-05-07 19:10 | 52.26462 | 4.73020 | 30594 ft | 468 kts | 34° |
| 2026-05-07 19:10 | 52.29139 | 4.76063 | 30878 ft | 468 kts | 34° |
| 2026-05-07 19:10 | 52.31809 | 4.79101 | 31151 ft | 467 kts | 34° |
| 2026-05-07 19:10 | 52.34476 | 4.82138 | 31444 ft | 467 kts | 34° |
| 2026-05-07 19:11 | 52.37148 | 4.85179 | 31727 ft | 467 kts | 34° |
| 2026-05-07 19:11 | 52.39809 | 4.88207 | 32015 ft | 466 kts | 34° |
| 2026-05-07 19:11 | 52.42477 | 4.91248 | 32305 ft | 466 kts | 35° |
| 2026-05-07 19:11 | 52.45123 | 4.94274 | 32624 ft | 464 kts | 35° |
| 2026-05-07 19:12 | 52.47766 | 4.97307 | 32936 ft | 463 kts | 35° |
| 2026-05-07 19:12 | 52.50399 | 5.00345 | 33216 ft | 463 kts | 35° |
| 2026-05-07 19:12 | 52.53031 | 5.03383 | 33503 ft | 462 kts | 35° |
| 2026-05-07 19:12 | 52.55662 | 5.06419 | 33784 ft | 462 kts | 35° |
| 2026-05-07 19:13 | 52.58262 | 5.09422 | 34062 ft | 462 kts | 35° |
| 2026-05-07 19:13 | 52.60890 | 5.12455 | 34309 ft | 461 kts | 35° |
| 2026-05-07 19:13 | 52.63517 | 5.15491 | 34538 ft | 461 kts | 35° |
| 2026-05-07 19:13 | 52.66143 | 5.18531 | 34772 ft | 461 kts | 35° |
| 2026-05-07 19:14 | 52.68762 | 5.21566 | 35049 ft | 459 kts | 35° |
| 2026-05-07 19:14 | 52.71374 | 5.24600 | 35289 ft | 459 kts | 35° |
| 2026-05-07 19:14 | 52.73984 | 5.27636 | 35489 ft | 459 kts | 35° |
| 2026-05-07 19:14 | 52.76601 | 5.30684 | 35685 ft | 459 kts | 35° |
| 2026-05-07 19:15 | 52.79212 | 5.33732 | 35866 ft | 460 kts | 35° |
| 2026-05-07 19:15 | 52.81822 | 5.36789 | 36060 ft | 460 kts | 35° |
| 2026-05-07 19:15 | 52.84437 | 5.39861 | 36240 ft | 460 kts | 35° |
| 2026-05-07 19:15 | 52.87049 | 5.42929 | 36414 ft | 460 kts | 35° |
| 2026-05-07 19:16 | 52.89628 | 5.45958 | 36596 ft | 460 kts | 36° |
| 2026-05-07 19:16 | 52.92239 | 5.49029 | 36781 ft | 460 kts | 35° |
| 2026-05-07 19:16 | 52.94849 | 5.52103 | 36965 ft | 460 kts | 35° |
| 2026-05-07 19:16 | 52.97460 | 5.55180 | 37100 ft | 461 kts | 35° |
| 2026-05-07 19:17 | 53.02699 | 5.61377 | 37114 ft | 462 kts | 35° |
| 2026-05-07 19:17 | 53.07933 | 5.67593 | 37112 ft | 462 kts | 35° |
| 2026-05-07 19:18 | 53.13161 | 5.73808 | 37112 ft | 462 kts | 36° |
| 2026-05-07 19:18 | 53.18382 | 5.80042 | 37112 ft | 461 kts | 36° |
| 2026-05-07 19:19 | 53.23555 | 5.86228 | 37111 ft | 461 kts | 36° |
| 2026-05-07 19:19 | 53.28761 | 5.92479 | 37114 ft | 461 kts | 36° |
| 2026-05-07 19:20 | 53.33965 | 5.98751 | 37120 ft | 461 kts | 36° |
| 2026-05-07 19:20 | 53.39175 | 6.05064 | 37123 ft | 461 kts | 36° |
| 2026-05-07 19:21 | 53.44346 | 6.11332 | 37128 ft | 461 kts | 36° |
| 2026-05-07 19:21 | 53.49549 | 6.17642 | 37131 ft | 461 kts | 36° |
| 2026-05-07 19:22 | 53.54747 | 6.23970 | 37128 ft | 461 kts | 36° |
| 2026-05-07 19:22 | 53.59942 | 6.30331 | 37140 ft | 461 kts | 37° |
| 2026-05-07 19:23 | 53.65130 | 6.36702 | 37143 ft | 461 kts | 37° |
| 2026-05-07 19:23 | 53.70305 | 6.43075 | 37147 ft | 460 kts | 37° |
| 2026-05-07 19:24 | 53.75445 | 6.49422 | 37140 ft | 460 kts | 37° |
| 2026-05-07 19:24 | 53.80618 | 6.55822 | 37142 ft | 460 kts | 37° |
| 2026-05-07 19:25 | 53.85780 | 6.62236 | 37151 ft | 459 kts | 37° |
| 2026-05-07 19:25 | 53.90924 | 6.68641 | 37148 ft | 458 kts | 37° |
| 2026-05-07 19:26 | 53.96051 | 6.75046 | 37147 ft | 458 kts | 37° |
| 2026-05-07 19:26 | 54.01171 | 6.81476 | 37148 ft | 457 kts | 37° |
| 2026-05-07 19:27 | 54.06283 | 6.87914 | 37148 ft | 457 kts | 37° |
| 2026-05-07 19:27 | 54.11357 | 6.94320 | 37146 ft | 456 kts | 37° |
| 2026-05-07 19:28 | 54.16452 | 7.00766 | 37163 ft | 456 kts | 38° |
| 2026-05-07 19:28 | 54.21538 | 7.07235 | 37147 ft | 455 kts | 38° |
| 2026-05-07 19:29 | 54.26619 | 7.13708 | 37143 ft | 455 kts | 38° |
| 2026-05-07 19:29 | 54.31703 | 7.20199 | 37144 ft | 455 kts | 37° |
| 2026-05-07 19:30 | 54.36779 | 7.26691 | 37145 ft | 455 kts | 38° |
| 2026-05-07 19:30 | 54.41813 | 7.33180 | 37144 ft | 455 kts | 38° |
| 2026-05-07 19:31 | 54.46874 | 7.39716 | 37144 ft | 455 kts | 38° |
| 2026-05-07 19:31 | 54.51077 | 7.45149 | 37145 ft | 455 kts | 38° |
| 2026-05-07 19:32 | 54.56001 | 7.51547 | 37153 ft | 455 kts | 38° |
| 2026-05-07 19:32 | 54.61053 | 7.58118 | 37149 ft | 455 kts | 38° |
| 2026-05-07 19:33 | 54.66102 | 7.64700 | 37153 ft | 455 kts | 38° |
| 2026-05-07 19:33 | 54.71141 | 7.71304 | 37163 ft | 455 kts | 38° |
| 2026-05-07 19:34 | 54.76177 | 7.77932 | 37157 ft | 455 kts | 38° |
| 2026-05-07 19:34 | 54.81212 | 7.84576 | 37157 ft | 454 kts | 38° |
| 2026-05-07 19:35 | 54.86240 | 7.91211 | 37153 ft | 454 kts | 38° |
| 2026-05-07 19:35 | 54.91260 | 7.97873 | 37150 ft | 454 kts | 38° |
| 2026-05-07 19:36 | 54.96276 | 8.04560 | 37149 ft | 454 kts | 38° |
| 2026-05-07 19:36 | 55.01261 | 8.11223 | 37150 ft | 455 kts | 38° |
| 2026-05-07 19:37 | 55.06283 | 8.17952 | 37152 ft | 455 kts | 38° |
| 2026-05-07 19:37 | 55.11300 | 8.24692 | 37147 ft | 455 kts | 38° |
| 2026-05-07 19:38 | 55.16312 | 8.31450 | 37151 ft | 454 kts | 38° |
| 2026-05-07 19:38 | 55.21312 | 8.38211 | 37153 ft | 454 kts | 38° |
| 2026-05-07 19:39 | 55.26272 | 8.44937 | 37162 ft | 454 kts | 38° |
| 2026-05-07 19:39 | 55.31265 | 8.51727 | 37165 ft | 453 kts | 38° |
| 2026-05-07 19:40 | 55.36243 | 8.58541 | 37168 ft | 453 kts | 38° |
| 2026-05-07 19:40 | 55.41226 | 8.65385 | 37171 ft | 453 kts | 38° |
| 2026-05-07 19:41 | 55.46198 | 8.72230 | 37176 ft | 454 kts | 38° |
| 2026-05-07 19:41 | 55.51165 | 8.79087 | 37184 ft | 454 kts | 38° |
| 2026-05-07 19:42 | 55.56133 | 8.85969 | 37168 ft | 454 kts | 38° |
| 2026-05-07 19:42 | 55.61095 | 8.92859 | 37172 ft | 453 kts | 38° |
| 2026-05-07 19:43 | 55.66021 | 8.99714 | 37171 ft | 454 kts | 38° |
| 2026-05-07 19:43 | 55.70986 | 9.06644 | 37184 ft | 454 kts | 38° |
| 2026-05-07 19:44 | 55.75943 | 9.13593 | 37175 ft | 454 kts | 38° |
| 2026-05-07 19:44 | 55.80893 | 9.20568 | 37185 ft | 454 kts | 38° |
| 2026-05-07 19:45 | 55.85842 | 9.27561 | 37176 ft | 454 kts | 38° |
| 2026-05-07 19:45 | 55.90778 | 9.34563 | 37167 ft | 453 kts | 38° |
| 2026-05-07 19:46 | 55.95709 | 9.41571 | 37161 ft | 453 kts | 38° |
| 2026-05-07 19:46 | 56.00631 | 9.48605 | 37161 ft | 453 kts | 38° |
| 2026-05-07 19:47 | 56.05551 | 9.55648 | 37162 ft | 453 kts | 38° |
| 2026-05-07 19:47 | 56.10470 | 9.62704 | 37161 ft | 453 kts | 38° |
| 2026-05-07 19:48 | 56.15385 | 9.69779 | 37159 ft | 453 kts | 38° |
| 2026-05-07 19:48 | 56.20261 | 9.76825 | 37158 ft | 453 kts | 38° |
| 2026-05-07 19:49 | 56.25171 | 9.83944 | 37154 ft | 453 kts | 38° |
| 2026-05-07 19:49 | 56.30079 | 9.91090 | 37159 ft | 453 kts | 38° |
| 2026-05-07 19:50 | 56.34986 | 9.98251 | 37157 ft | 453 kts | 38° |
| 2026-05-07 19:50 | 56.39885 | 10.05433 | 36843 ft | 453 kts | 38° |
| 2026-05-07 19:51 | 56.42295 | 10.08978 | 36578 ft | 452 kts | 39° |
| 2026-05-07 19:51 | 56.44731 | 10.12563 | 36321 ft | 451 kts | 38° |
| 2026-05-07 19:51 | 56.47176 | 10.16164 | 35524 ft | 453 kts | 39° |
| 2026-05-07 19:51 | 56.49624 | 10.19780 | 34659 ft | 455 kts | 38° |
| 2026-05-07 19:52 | 56.52072 | 10.23407 | 33744 ft | 455 kts | 39° |
| 2026-05-07 19:52 | 56.54522 | 10.27045 | 32719 ft | 456 kts | 39° |
| 2026-05-07 19:52 | 56.56978 | 10.30696 | 31699 ft | 457 kts | 38° |
| 2026-05-07 19:52 | 56.59447 | 10.34366 | 30733 ft | 458 kts | 38° |
| 2026-05-07 19:53 | 56.61929 | 10.38060 | 29508 ft | 462 kts | 39° |
| 2026-05-07 19:53 | 56.64389 | 10.41730 | 28974 ft | 452 kts | 38° |
| 2026-05-07 19:53 | 56.66796 | 10.45331 | 28287 ft | 445 kts | 39° |
| 2026-05-07 19:53 | 56.69147 | 10.48855 | 27615 ft | 440 kts | 38° |
| 2026-05-07 19:54 | 56.71526 | 10.52424 | 26943 ft | 436 kts | 38° |
| 2026-05-07 19:54 | 56.73853 | 10.55919 | 26297 ft | 431 kts | 38° |
| 2026-05-07 19:54 | 56.76157 | 10.59384 | 25644 ft | 427 kts | 38° |
| 2026-05-07 19:54 | 56.78414 | 10.62785 | 25023 ft | 424 kts | 38° |
| 2026-05-07 19:55 | 56.80676 | 10.66207 | 24400 ft | 421 kts | 38° |
| 2026-05-07 19:55 | 56.82923 | 10.69606 | 23772 ft | 418 kts | 38° |
| 2026-05-07 19:55 | 56.85155 | 10.72980 | 23095 ft | 415 kts | 38° |
| 2026-05-07 19:55 | 56.87360 | 10.76324 | 22538 ft | 409 kts | 39° |
| 2026-05-07 19:56 | 56.89541 | 10.79640 | 21982 ft | 405 kts | 39° |
| 2026-05-07 19:56 | 56.91688 | 10.82909 | 21474 ft | 400 kts | 38° |
| 2026-05-07 19:56 | 56.93818 | 10.86158 | 20955 ft | 397 kts | 38° |
| 2026-05-07 19:56 | 56.95933 | 10.89389 | 20468 ft | 393 kts | 38° |
| 2026-05-07 19:57 | 56.98028 | 10.92592 | 19981 ft | 389 kts | 39° |
| 2026-05-07 19:57 | 57.00075 | 10.95727 | 19509 ft | 386 kts | 39° |
| 2026-05-07 19:57 | 57.02123 | 10.98866 | 19046 ft | 383 kts | 39° |
| 2026-05-07 19:57 | 57.04162 | 11.01991 | 18554 ft | 381 kts | 39° |
| 2026-05-07 19:58 | 57.06187 | 11.05105 | 18022 ft | 378 kts | 39° |
| 2026-05-07 19:58 | 57.08195 | 11.08195 | 17525 ft | 375 kts | 39° |
| 2026-05-07 19:58 | 57.10183 | 11.11262 | 17028 ft | 371 kts | 39° |
| 2026-05-07 19:58 | 57.12157 | 11.14318 | 16523 ft | 369 kts | 39° |
| 2026-05-07 19:59 | 57.14114 | 11.17352 | 16020 ft | 366 kts | 39° |
| 2026-05-07 19:59 | 57.16059 | 11.20371 | 15506 ft | 365 kts | 39° |
| 2026-05-07 19:59 | 57.17996 | 11.23380 | 14990 ft | 363 kts | 39° |
| 2026-05-07 19:59 | 57.19925 | 11.26382 | 14478 ft | 362 kts | 40° |
| 2026-05-07 20:00 | 57.21711 | 11.29665 | 13968 ft | 361 kts | 46° |
| 2026-05-07 20:00 | 57.23415 | 11.33062 | 13403 ft | 360 kts | 46° |
| 2026-05-07 20:00 | 57.25105 | 11.36425 | 12886 ft | 356 kts | 46° |
| 2026-05-07 20:00 | 57.26768 | 11.39740 | 12353 ft | 354 kts | 46° |
| 2026-05-07 20:01 | 57.28453 | 11.43099 | 11826 ft | 351 kts | 46° |
| 2026-05-07 20:01 | 57.30003 | 11.46495 | 11295 ft | 349 kts | 55° |
| 2026-05-07 20:01 | 57.31149 | 11.50423 | 10814 ft | 345 kts | 69° |
| 2026-05-07 20:01 | 57.31787 | 11.54607 | 10678 ft | 331 kts | 80° |
| 2026-05-07 20:02 | 57.31980 | 11.58760 | 10551 ft | 318 kts | 88° |
| 2026-05-07 20:02 | 57.32059 | 11.62767 | 10426 ft | 306 kts | 88° |
| 2026-05-07 20:02 | 57.32134 | 11.66642 | 10243 ft | 297 kts | 88° |
| 2026-05-07 20:02 | 57.32207 | 11.70420 | 10066 ft | 292 kts | 88° |
| 2026-05-07 20:03 | 57.32276 | 11.74177 | 9880 ft | 292 kts | 88° |
| 2026-05-07 20:03 | 57.32344 | 11.77900 | 9429 ft | 292 kts | 88° |
| 2026-05-07 20:03 | 57.32411 | 11.81660 | 8932 ft | 294 kts | 88° |
| 2026-05-07 20:03 | 57.32476 | 11.85400 | 8625 ft | 288 kts | 88° |
| 2026-05-07 20:04 | 57.32698 | 11.89058 | 8133 ft | 284 kts | 76° |
| 2026-05-07 20:04 | 57.33182 | 11.92598 | 7545 ft | 282 kts | 75° |
| 2026-05-07 20:04 | 57.33818 | 11.95981 | 7147 ft | 272 kts | 61° |
| 2026-05-07 20:04 | 57.34877 | 11.98784 | 6802 ft | 262 kts | 46° |
| 2026-05-07 20:05 | 57.36256 | 12.00857 | 6579 ft | 248 kts | 31° |
| 2026-05-07 20:05 | 57.37750 | 12.02265 | 6474 ft | 237 kts | 26° |
| 2026-05-07 20:05 | 57.39227 | 12.03585 | 6191 ft | 235 kts | 27° |
| 2026-05-07 20:05 | 57.40678 | 12.04884 | 5867 ft | 234 kts | 27° |
| 2026-05-07 20:06 | 57.42141 | 12.06194 | 5555 ft | 233 kts | 27° |
| 2026-05-07 20:06 | 57.43602 | 12.07504 | 5241 ft | 233 kts | 27° |
| 2026-05-07 20:06 | 57.45058 | 12.08809 | 4925 ft | 232 kts | 27° |
| 2026-05-07 20:06 | 57.46504 | 12.10107 | 4600 ft | 231 kts | 27° |
| 2026-05-07 20:07 | 57.47951 | 12.11408 | 4279 ft | 230 kts | 27° |
| 2026-05-07 20:07 | 57.49394 | 12.12705 | 3956 ft | 229 kts | 26° |
| 2026-05-07 20:07 | 57.50818 | 12.13987 | 3645 ft | 223 kts | 26° |
| 2026-05-07 20:07 | 57.52191 | 12.15224 | 3351 ft | 215 kts | 26° |
| 2026-05-07 20:08 | 57.53510 | 12.16413 | 3097 ft | 205 kts | 26° |
| 2026-05-07 20:08 | 57.54742 | 12.17525 | 2802 ft | 191 kts | 26° |
| 2026-05-07 20:08 | 57.55874 | 12.18547 | 2563 ft | 170 kts | 25° |
| 2026-05-07 20:08 | 57.56881 | 12.19458 | 2324 ft | 153 kts | 25° |
| 2026-05-07 20:09 | 57.57804 | 12.20293 | 2118 ft | 144 kts | 24° |
| 2026-05-07 20:09 | 57.58693 | 12.21096 | 1925 ft | 140 kts | 25° |
| 2026-05-07 20:09 | 57.59563 | 12.21888 | 1742 ft | 138 kts | 25° |
| 2026-05-07 20:10 | 57.61285 | 12.23422 | 1342 ft | 137 kts | 24° |
| 2026-05-07 20:10 | 57.62151 | 12.24212 | 1110 ft | 139 kts | 25° |
| 2026-05-07 20:10 | 57.63007 | 12.25007 | 936 ft | 136 kts | 25° |
| 2026-05-07 20:10 | 57.63856 | 12.25774 | 752 ft | 136 kts | 24° |
| 2026-05-07 20:11 | 57.64704 | 12.26549 | 617 ft | 135 kts | 25° |
| 2026-05-07 20:11 | 57.65507 | 12.27261 | 500 ft | 114 kts | 24° |
| 2026-05-07 20:11 | 57.66064 | 12.27777 | 508 ft | 66 kts | 26° |
| 2026-05-07 20:11 | 57.66332 | 12.28022 | 510 ft | 30 kts | 26° |
| 2026-05-07 20:12 | 57.66518 | 12.28194 | 512 ft | 29 kts | 29° |
| 2026-05-07 20:12 | 57.66669 | 12.28452 | 512 ft | 30 kts | 55° |
| 2026-05-07 20:12 | 57.66752 | 12.28678 | 513 ft | 10 kts | 56° |
| 2026-05-07 20:12 | 57.66788 | 12.28774 | 513 ft | 8 kts | 51° |
| 2026-05-07 20:13 | 57.66813 | 12.28822 | 513 ft | 7 kts | 43° |
| 2026-05-07 20:13 | 57.66825 | 12.28894 | 515 ft | 6 kts | 95° |
| 2026-05-07 20:13 | 57.66810 | 12.28977 | 516 ft | 9 kts | 115° |
| 2026-05-07 20:13 | 57.66775 | 12.29106 | 516 ft | 11 kts | 112° |
| 2026-05-07 20:14 | 57.66809 | 12.29199 | 516 ft | 9 kts | 25° |
| 2026-05-07 20:14 | 57.66861 | 12.29245 | 516 ft | 8 kts | 26° |
| 2026-05-07 20:14 | 57.66914 | 12.29293 | 516 ft | 9 kts | 26° |
| 2026-05-07 20:14 | 57.66974 | 12.29348 | 516 ft | 9 kts | 26° |
| 2026-05-07 20:15 | 57.67026 | 12.29396 | 516 ft | 7 kts | 34° |
| 2026-05-07 20:15 | 57.67022 | 12.29472 | 516 ft | 6 kts | 116° |
| 2026-05-07 20:15 | 57.67006 | 12.29531 | 516 ft | 3 kts | 116° |
| 2026-05-07 20:15 | 57.67005 | 12.29533 | 516 ft | 0 kts | 116° |